Otsego, Minnesota
Current Conditions -  °F | °C
As of 8:53 PM on Tuesday 25 Nov 2014 (Local Time) from KMIC Reporting Station
Overcast Overcast  
Wind Chill: 18°   Ceiling: 5500
Heat Index: 25°   Visibility: 10mi
Dew Point: 16°   Wind: 6mph
Humidity: 69%   Direction: 140°SE
Pressure: 30.02"   Gusts: NA
Location:  45.1964°N, 93.4758°W
Report Text: KMIC 260253Z AUTO 14005KT 10SM OVC055 M04/M09 A3002 RMK AO2 SLP181 T10391089 53003
Loading
Personal Weather Stations






























Interactive Weather Map New forecast layout! Learn more

10-Day Weather Forecast

Advertisements
Track Severe Weather on mobile